createdAt,value
2022-08-16T00:03:13.599Z,23.10
2022-08-16T00:08:36.112Z,23.00
2022-08-16T00:13:41.728Z,23.00
2022-08-16T00:18:46.499Z,22.80
2022-08-16T00:23:49.992Z,22.90
2022-08-16T00:28:53.564Z,22.80
2022-08-16T00:33:57.429Z,22.60
2022-08-16T00:38:59.945Z,22.40
2022-08-16T00:44:10.986Z,22.30
2022-08-16T00:49:18.690Z,22.20
2022-08-16T00:54:24.712Z,22.10
2022-08-16T00:59:30.764Z,22.10
2022-08-16T01:04:36.188Z,22.00
2022-08-16T01:09:42.898Z,22.00
2022-08-16T01:14:53.305Z,22.00
2022-08-16T01:20:02.213Z,22.20
2022-08-16T01:25:36.311Z,22.10
2022-08-16T01:30:50.007Z,22.20
2022-08-16T01:36:02.677Z,22.00
2022-08-16T01:41:24.959Z,22.10
2022-08-16T01:46:39.873Z,21.80
2022-08-16T01:52:07.061Z,21.50
2022-08-16T01:57:53.521Z,21.70
2022-08-16T02:02:59.013Z,21.50
2022-08-16T02:08:03.487Z,21.60
2022-08-16T02:13:08.175Z,21.40
2022-08-16T02:18:12.482Z,21.50
2022-08-16T02:23:18.210Z,21.50
2022-08-16T02:28:23.632Z,21.40
2022-08-16T02:33:43.717Z,21.10
2022-08-16T02:38:56.947Z,21.20
2022-08-16T02:44:00.212Z,21.20
2022-08-16T02:49:07.116Z,21.20
2022-08-16T02:54:13.775Z,21.30
2022-08-16T02:59:22.107Z,21.20
2022-08-16T03:04:40.657Z,21.30
2022-08-16T03:09:47.798Z,21.40
2022-08-16T03:14:54.406Z,21.10
2022-08-16T03:19:59.931Z,21.30
2022-08-16T03:25:12.775Z,21.20
2022-08-16T03:30:29.855Z,21.10
2022-08-16T03:35:40.365Z,21.00
2022-08-16T03:40:59.521Z,20.90
2022-08-16T03:46:04.595Z,20.90
2022-08-16T03:51:12.853Z,20.80
2022-08-16T03:56:22.306Z,20.80
2022-08-16T04:01:29.182Z,20.90
2022-08-16T04:06:32.372Z,20.80
2022-08-16T04:11:37.677Z,20.90
2022-08-16T04:16:41.485Z,21.00
2022-08-16T04:22:02.332Z,20.90
2022-08-16T04:27:19.661Z,21.00
2022-08-16T04:32:22.802Z,21.00
2022-08-16T04:37:29.118Z,21.00
2022-08-16T04:42:45.975Z,21.20
2022-08-16T04:47:56.139Z,21.40
2022-08-16T04:53:01.948Z,21.00
2022-08-16T04:58:44.489Z,21.00
2022-08-16T05:03:33.553Z,21.00
2022-08-16T05:08:36.565Z,21.30
2022-08-16T05:13:52.121Z,21.50
2022-08-16T05:18:59.787Z,21.40
2022-08-16T05:24:09.128Z,21.30
2022-08-16T05:29:15.293Z,21.50
2022-08-16T05:34:32.328Z,21.60
2022-08-16T05:39:40.702Z,21.60
2022-08-16T05:44:44.743Z,21.90
2022-08-16T05:49:53.705Z,22.10
2022-08-16T05:55:01.139Z,22.20
2022-08-16T06:00:11.940Z,22.40
2022-08-16T06:05:17.767Z,22.60
2022-08-16T06:10:32.294Z,22.50
2022-08-16T06:15:41.434Z,22.60
2022-08-16T06:20:55.174Z,22.70
2022-08-16T06:26:01.704Z,22.80
2022-08-16T06:31:12.922Z,23.10
2022-08-16T06:36:21.735Z,23.30
2022-08-16T06:41:44.624Z,23.50
2022-08-16T06:47:05.776Z,23.60
2022-08-16T06:52:57.227Z,23.70
2022-08-16T06:57:32.472Z,23.90
2022-08-16T07:02:51.362Z,24.10
2022-08-16T07:07:55.250Z,24.10
2022-08-16T07:13:04.178Z,24.20
2022-08-16T07:18:21.225Z,24.30
2022-08-16T07:23:37.380Z,24.60
2022-08-16T07:28:45.328Z,24.90
2022-08-16T07:33:53.276Z,25.20
2022-08-16T07:39:03.075Z,25.40
2022-08-16T07:44:16.737Z,25.50
2022-08-16T07:49:22.280Z,25.60
2022-08-16T07:54:32.347Z,25.70
2022-08-16T07:59:46.587Z,25.60
2022-08-16T08:04:53.065Z,25.60
2022-08-16T08:09:57.615Z,25.60
2022-08-16T08:15:01.866Z,25.70
2022-08-16T08:20:09.129Z,25.80
2022-08-16T08:25:13.081Z,26.00
2022-08-16T08:30:51.723Z,26.00
2022-08-16T08:35:42.708Z,26.30
2022-08-16T08:40:46.687Z,26.40
2022-08-16T08:45:53.357Z,26.50
2022-08-16T08:50:58.548Z,26.70
2022-08-16T08:56:22.997Z,26.70
2022-08-16T09:01:36.923Z,26.70
2022-08-16T09:06:47.377Z,26.90
2022-08-16T09:12:04.130Z,27.10
2022-08-16T09:17:49.047Z,27.10
2022-08-16T09:22:56.114Z,27.30
2022-08-16T09:28:11.056Z,27.30
2022-08-16T09:33:21.351Z,27.50
2022-08-16T09:38:32.433Z,27.50
2022-08-16T09:44:00.210Z,27.70
2022-08-16T09:48:59.297Z,27.80
2022-08-16T09:54:09.665Z,28.10
2022-08-16T09:59:14.435Z,28.10
2022-08-16T10:04:30.346Z,28.10
2022-08-16T10:09:53.981Z,28.40
2022-08-16T10:14:58.373Z,28.70
2022-08-16T10:20:01.110Z,29.20
2022-08-16T10:25:05.887Z,29.40
2022-08-16T10:30:25.729Z,29.50
2022-08-16T10:35:32.729Z,29.80
2022-08-16T10:40:36.855Z,30.20
2022-08-16T10:45:40.746Z,30.30
2022-08-16T10:50:45.503Z,30.70
2022-08-16T10:55:47.992Z,30.50
2022-08-16T11:01:00.744Z,30.30
2022-08-16T11:06:09.532Z,30.80
2022-08-16T11:11:19.605Z,30.80
2022-08-16T11:16:26.481Z,30.90
2022-08-16T11:21:30.063Z,31.40
2022-08-16T11:26:32.587Z,32.20
2022-08-16T11:31:35.316Z,32.30
2022-08-16T11:36:37.904Z,32.40
2022-08-16T11:41:43.621Z,32.60
2022-08-16T11:46:46.868Z,32.30
2022-08-16T11:51:50.099Z,32.70
2022-08-16T11:56:57.279Z,33.00
2022-08-16T12:02:04.414Z,33.10
2022-08-16T12:07:23.849Z,33.60
2022-08-16T12:12:28.538Z,33.50
2022-08-16T12:17:32.371Z,33.80
2022-08-16T12:22:36.844Z,33.70
2022-08-16T12:27:40.875Z,33.70
2022-08-16T12:32:44.308Z,34.10
2022-08-16T12:37:58.552Z,34.20
2022-08-16T12:43:05.131Z,34.90
2022-08-16T12:48:33.866Z,34.40
2022-08-16T12:53:39.763Z,34.80
2022-08-16T12:58:49.301Z,34.70
2022-08-16T13:04:11.804Z,35.10
2022-08-16T13:09:23.438Z,35.60
2022-08-16T13:14:33.517Z,36.30
2022-08-16T13:20:03.822Z,37.10
2022-08-16T13:24:59.025Z,37.80
2022-08-16T13:30:01.482Z,38.00
2022-08-16T13:35:05.288Z,38.40
2022-08-16T13:40:09.357Z,39.00
2022-08-16T13:45:22.721Z,39.70
2022-08-16T13:50:31.471Z,39.50
2022-08-16T13:55:48.648Z,40.70
2022-08-16T14:01:03.276Z,41.20
2022-08-16T14:06:06.343Z,42.10
2022-08-16T14:11:12.078Z,42.00
2022-08-16T14:16:23.810Z,42.90
2022-08-16T14:21:27.652Z,43.20
2022-08-16T14:26:38.007Z,42.80
2022-08-16T14:31:42.737Z,43.40
2022-08-16T14:36:45.985Z,43.50
2022-08-16T14:41:56.014Z,43.80
2022-08-16T14:46:58.574Z,43.40
2022-08-16T14:52:05.001Z,42.40
2022-08-16T14:57:07.517Z,43.20
2022-08-16T15:02:27.725Z,43.80
2022-08-16T15:07:40.249Z,44.00
2022-08-16T15:12:43.333Z,42.90
2022-08-16T15:17:55.975Z,43.40
2022-08-16T15:23:01.468Z,44.60
2022-08-16T15:28:07.178Z,44.10
2022-08-16T15:33:27.335Z,41.10
2022-08-16T15:38:57.640Z,41.40
2022-08-16T15:44:05.413Z,43.10
2022-08-16T15:49:15.499Z,44.50
2022-08-16T15:54:29.412Z,44.60
2022-08-16T15:59:48.045Z,44.50
2022-08-16T16:04:52.306Z,44.70
2022-08-16T16:09:56.367Z,44.80
2022-08-16T16:15:01.408Z,45.10
2022-08-16T16:20:13.773Z,44.90
2022-08-16T16:25:19.221Z,44.20
2022-08-16T16:30:38.159Z,43.60
2022-08-16T16:35:47.141Z,44.00
2022-08-16T16:40:58.950Z,44.10
2022-08-16T16:46:02.605Z,44.50
2022-08-16T16:51:10.372Z,41.80
2022-08-16T16:56:19.648Z,40.30
2022-08-16T17:01:56.671Z,39.60
2022-08-16T17:06:57.396Z,40.60
2022-08-16T17:11:59.994Z,41.30
2022-08-16T17:17:07.081Z,41.10
2022-08-16T17:22:16.700Z,40.60
2022-08-16T17:27:32.899Z,39.50
2022-08-16T17:32:47.989Z,37.30
2022-08-16T17:37:52.522Z,35.30
2022-08-16T17:42:57.398Z,33.80
2022-08-16T17:48:00.158Z,33.10
2022-08-16T17:53:05.110Z,32.90
2022-08-16T17:58:23.018Z,32.40
2022-08-16T18:04:07.148Z,32.10
2022-08-16T18:09:03.943Z,31.80
2022-08-16T18:14:07.086Z,31.50
2022-08-16T18:19:10.539Z,31.20
2022-08-16T18:24:15.061Z,31.00
2022-08-16T18:29:18.234Z,30.70
2022-08-16T18:34:20.860Z,30.40
2022-08-16T18:39:23.308Z,30.30
2022-08-16T18:44:30.106Z,30.00
2022-08-16T18:49:36.508Z,29.70
2022-08-16T18:55:02.291Z,29.60
2022-08-16T19:00:02.172Z,29.00
2022-08-16T19:05:05.045Z,28.70
2022-08-16T19:10:08.219Z,28.50
2022-08-16T19:15:31.177Z,28.40
2022-08-16T19:20:33.859Z,28.30
2022-08-16T19:25:46.723Z,27.70
2022-08-16T19:30:52.187Z,27.30
2022-08-16T19:35:54.726Z,27.40
2022-08-16T19:40:57.145Z,27.50
2022-08-16T19:45:59.674Z,27.30
2022-08-16T19:51:02.119Z,26.80
2022-08-16T19:56:04.816Z,26.70
2022-08-16T20:01:07.303Z,26.60
2022-08-16T20:06:10.457Z,26.60
2022-08-16T20:11:32.350Z,26.50
2022-08-16T20:16:34.809Z,26.30
2022-08-16T20:21:37.286Z,26.00
2022-08-16T20:26:39.781Z,25.90
2022-08-16T20:31:42.538Z,26.00
2022-08-16T20:36:45.025Z,25.70
2022-08-16T20:41:47.425Z,25.10
2022-08-16T20:46:50.047Z,25.30
2022-08-16T20:51:57.200Z,25.20
2022-08-16T20:57:02.169Z,25.00
2022-08-16T21:02:04.636Z,25.30
2022-08-16T21:07:07.814Z,25.40
2022-08-16T21:12:13.689Z,25.10
2022-08-16T21:17:20.491Z,24.80
2022-08-16T21:22:23.254Z,24.60
2022-08-16T21:27:25.954Z,24.60
2022-08-16T21:32:35.542Z,24.40
2022-08-16T21:37:39.135Z,24.60
2022-08-16T21:42:42.678Z,24.40
2022-08-16T21:47:45.085Z,24.30
2022-08-16T21:52:47.501Z,24.30
2022-08-16T21:57:50.229Z,24.30
2022-08-16T22:02:55.873Z,24.10
2022-08-16T22:08:01.405Z,24.10
2022-08-16T22:13:16.764Z,23.90
2022-08-16T22:18:19.338Z,23.70
2022-08-16T22:23:25.346Z,23.80
2022-08-16T22:28:27.884Z,24.00
2022-08-16T22:33:30.397Z,23.70
2022-08-16T22:38:55.527Z,23.30
2022-08-16T22:43:56.251Z,23.10
2022-08-16T22:48:58.958Z,23.10
2022-08-16T22:54:34.146Z,23.00
2022-08-16T22:59:25.434Z,23.10
2022-08-16T23:04:28.360Z,23.30
2022-08-16T23:09:30.823Z,23.10
2022-08-16T23:14:33.752Z,23.00
2022-08-16T23:19:36.529Z,23.10
2022-08-16T23:24:46.670Z,23.00
2022-08-16T23:30:00.139Z,23.00
2022-08-16T23:35:03.612Z,22.80
2022-08-16T23:40:08.612Z,22.70
2022-08-16T23:45:11.061Z,22.90
2022-08-16T23:50:14.832Z,22.80
2022-08-16T23:55:17.543Z,22.70
